createdAt,value
2022-11-17T00:06:20.984Z,49.95
2022-11-17T00:16:22.992Z,53.35
2022-11-17T00:26:35.912Z,43.80
2022-11-17T00:36:45.831Z,44.13
2022-11-17T00:46:49.528Z,46.38
2022-11-17T00:56:52.086Z,45.45
2022-11-17T01:06:53.682Z,54.50
2022-11-17T01:16:55.904Z,56.60
2022-11-17T01:26:57.598Z,53.63
2022-11-17T01:37:17.699Z,59.45
2022-11-17T01:47:42.865Z,55.15
2022-11-17T01:57:58.683Z,57.33
2022-11-17T02:08:04.820Z,53.60
2022-11-17T02:18:06.750Z,52.88
2022-11-17T02:28:29.219Z,56.17
2022-11-17T02:38:55.387Z,45.50
2022-11-17T02:49:05.286Z,51.35
2022-11-17T02:59:07.062Z,47.85
2022-11-17T03:09:39.637Z,52.95
2022-11-17T03:19:55.172Z,53.63
2022-11-17T03:30:02.904Z,57.88
2022-11-17T03:40:10.988Z,50.90
2022-11-17T03:50:22.146Z,60.35
2022-11-17T04:00:23.987Z,58.63
2022-11-17T04:10:26.974Z,50.60
2022-11-17T04:20:36.136Z,51.10
2022-11-17T04:30:37.729Z,47.50
2022-11-17T04:41:02.500Z,53.17
2022-11-17T04:51:04.328Z,58.03
2022-11-17T05:01:14.853Z,47.08
2022-11-17T05:11:36.958Z,46.15
2022-11-17T05:21:41.153Z,54.83
2022-11-17T05:31:54.748Z,49.95
2022-11-17T05:41:56.400Z,44.67
2022-11-17T05:51:57.947Z,47.72
2022-11-17T06:02:06.379Z,47.53
2022-11-17T06:12:08.477Z,46.47
2022-11-17T06:22:12.993Z,41.25
2022-11-17T06:32:18.294Z,41.88
2022-11-17T06:42:20.269Z,38.85
2022-11-17T06:52:25.883Z,47.08
2022-11-17T07:02:27.606Z,44.40
2022-11-17T07:12:29.229Z,43.72
2022-11-17T07:22:32.967Z,42.17
2022-11-17T07:32:35.099Z,34.95
2022-11-17T07:42:39.837Z,31.17
2022-11-17T07:52:41.839Z,33.58
2022-11-17T08:02:47.733Z,29.27
2022-11-17T08:12:54.293Z,25.77
2022-11-17T08:23:00.116Z,18.83
2022-11-17T08:33:02.279Z,20.60
2022-11-17T08:43:05.192Z,18.88
2022-11-17T08:53:17.404Z,16.35
2022-11-17T09:03:19.985Z,13.57
2022-11-17T09:13:25.135Z,17.90
2022-11-17T09:23:29.654Z,14.27
2022-11-17T09:33:31.320Z,13.10
2022-11-17T09:43:39.070Z,15.50
2022-11-17T09:53:51.147Z,9.63
2022-11-17T10:04:00.193Z,9.53
2022-11-17T10:14:07.882Z,11.30
2022-11-17T10:24:09.670Z,9.18
2022-11-17T10:34:31.950Z,10.07
2022-11-17T10:45:15.933Z,12.10
2022-11-17T10:55:28.233Z,13.50
2022-11-17T11:05:31.038Z,10.95
2022-11-17T11:15:37.103Z,10.70
2022-11-17T11:25:55.899Z,9.80
2022-11-17T11:36:29.739Z,12.75
2022-11-17T11:46:56.241Z,15.45
2022-11-17T11:56:57.833Z,14.68
2022-11-17T12:07:11.354Z,12.95
2022-11-17T12:17:13.117Z,31.45
2022-11-17T12:27:36.270Z,13.50
2022-11-17T12:38:16.911Z,14.45
2022-11-17T12:48:33.478Z,10.10
2022-11-17T12:58:48.973Z,10.15
2022-11-17T13:09:04.727Z,15.68
2022-11-17T13:19:43.981Z,14.40
2022-11-17T13:29:52.444Z,13.73
2022-11-17T13:40:02.734Z,11.55
2022-11-17T13:50:34.645Z,10.27
2022-11-17T14:00:37.364Z,9.40
2022-11-17T14:10:39.974Z,13.30
2022-11-17T14:20:41.698Z,12.60
2022-11-17T14:30:47.797Z,11.75
2022-11-17T14:40:53.170Z,13.80
2022-11-17T14:50:59.410Z,12.00
2022-11-17T15:01:13.792Z,13.90
2022-11-17T15:11:17.980Z,13.45
2022-11-17T15:21:19.933Z,20.88
2022-11-17T15:31:21.854Z,18.38
2022-11-17T15:41:28.518Z,22.40
2022-11-17T15:51:34.194Z,25.00
2022-11-17T16:01:38.879Z,28.23
2022-11-17T16:11:41.281Z,25.25
2022-11-17T16:21:43.304Z,27.43
2022-11-17T16:31:48.957Z,29.15
2022-11-17T16:42:06.217Z,25.58
2022-11-17T16:52:10.588Z,23.58
2022-11-17T17:02:15.850Z,28.70
2022-11-17T17:12:18.729Z,28.88
2022-11-17T17:22:25.767Z,34.37
2022-11-17T17:32:29.623Z,25.70
2022-11-17T17:42:34.383Z,30.38
2022-11-17T17:52:37.181Z,30.85
2022-11-17T18:02:39.124Z,32.77
2022-11-17T18:12:43.776Z,31.48
2022-11-17T18:22:49.673Z,29.92
2022-11-17T18:32:54.721Z,32.28
2022-11-17T18:43:02.568Z,32.97
2022-11-17T18:53:06.702Z,32.47
2022-11-17T19:03:09.360Z,41.30
2022-11-17T19:13:11.835Z,35.10
2022-11-17T19:23:14.407Z,37.50
2022-11-17T19:33:20.659Z,38.57
2022-11-17T19:43:28.748Z,39.10
2022-11-17T19:53:38.345Z,35.65
2022-11-17T20:03:44.154Z,37.70
2022-11-17T20:13:46.337Z,40.22
2022-11-17T20:23:54.569Z,35.38
2022-11-17T20:34:05.938Z,41.00
2022-11-17T20:44:24.772Z,41.90
2022-11-17T20:54:27.293Z,39.20
2022-11-17T21:04:30.418Z,41.53
2022-11-17T21:14:34.854Z,38.38
2022-11-17T21:24:39.882Z,39.22
2022-11-17T21:34:45.639Z,42.75
2022-11-17T21:44:50.426Z,43.13
2022-11-17T21:54:53.475Z,39.70
2022-11-17T22:05:00.910Z,39.67
2022-11-17T22:15:05.081Z,41.50
2022-11-17T22:25:42.920Z,42.85
2022-11-17T22:35:39.417Z,44.23
2022-11-17T22:45:43.980Z,47.35
2022-11-17T22:55:50.028Z,49.80
2022-11-17T23:05:52.980Z,51.05
2022-11-17T23:15:55.209Z,54.37
2022-11-17T23:26:01.529Z,53.20
2022-11-17T23:36:06.172Z,53.38
2022-11-17T23:46:17.135Z,57.20
2022-11-17T23:56:22.717Z,60.80
